createdAt,value
2022-12-27T00:01:55.286Z,96152.88
2022-12-27T00:04:25.744Z,96151.06
2022-12-27T00:06:54.404Z,96161.47
2022-12-27T00:09:23.192Z,96174.34
2022-12-27T00:11:58.079Z,96179.63
2022-12-27T00:14:28.989Z,96181.69
2022-12-27T00:16:57.634Z,96186.75
2022-12-27T00:19:26.388Z,96190.78
2022-12-27T00:21:54.934Z,96189.97
2022-12-27T00:24:23.813Z,96192.19
2022-12-27T00:26:53.925Z,96193.00
2022-12-27T00:29:23.149Z,96191.53
2022-12-27T00:31:52.081Z,96197.16
2022-12-27T00:34:20.766Z,96197.19
2022-12-27T00:36:49.426Z,96209.66
2022-12-27T00:39:18.023Z,96220.28
2022-12-27T00:41:48.037Z,96220.09
2022-12-27T00:44:18.329Z,96223.34
2022-12-27T00:46:46.975Z,96216.22
2022-12-27T00:49:15.624Z,96223.13
2022-12-27T00:51:44.843Z,96225.38
2022-12-27T00:54:13.542Z,96234.16
2022-12-27T00:56:42.215Z,96230.09
2022-12-27T00:59:12.287Z,96236.59
2022-12-27T01:01:43.608Z,96245.03
2022-12-27T01:04:13.592Z,96248.31
2022-12-27T01:06:42.629Z,96268.25
2022-12-27T01:09:11.254Z,96272.72
2022-12-27T01:11:41.107Z,96282.09
2022-12-27T01:14:09.719Z,96298.34
2022-12-27T01:16:38.750Z,96321.56
2022-12-27T01:19:09.121Z,96318.94
2022-12-27T01:21:37.762Z,96310.84
2022-12-27T01:24:07.511Z,96316.94
2022-12-27T01:26:36.110Z,96321.41
2022-12-27T01:29:04.748Z,96320.00
2022-12-27T01:31:33.433Z,96329.31
2022-12-27T01:34:02.096Z,96336.03
2022-12-27T01:36:32.418Z,96339.69
2022-12-27T01:39:01.214Z,96333.78
2022-12-27T01:41:48.510Z,96344.72
2022-12-27T01:44:56.620Z,96348.59
2022-12-27T01:47:35.487Z,96348.78
2022-12-27T01:50:12.819Z,96361.78
2022-12-27T01:52:46.083Z,96364.00
2022-12-27T01:55:19.403Z,96368.84
2022-12-27T01:57:49.094Z,96378.19
2022-12-27T02:00:17.728Z,96382.22
2022-12-27T02:02:46.474Z,96387.06
2022-12-27T02:05:16.132Z,96390.69
2022-12-27T02:07:50.680Z,96393.53
2022-12-27T02:10:19.435Z,96394.16
2022-12-27T02:12:49.379Z,96395.75
2022-12-27T02:15:18.076Z,96392.69
2022-12-27T02:17:46.684Z,96403.44
2022-12-27T02:20:16.998Z,96404.78
2022-12-27T02:23:40.102Z,96419.59
2022-12-27T02:26:37.390Z,96423.03
2022-12-27T02:29:38.216Z,96423.22
2022-12-27T02:32:08.482Z,96421.78
2022-12-27T02:34:42.702Z,96427.06
2022-12-27T02:37:11.843Z,96427.78
2022-12-27T02:39:42.861Z,96436.28
2022-12-27T02:42:29.727Z,96432.03
2022-12-27T02:45:13.922Z,96443.75
2022-12-27T02:47:59.901Z,96442.13
2022-12-27T02:50:48.695Z,96454.47
2022-12-27T02:53:19.829Z,96454.25
2022-12-27T02:56:12.636Z,96459.91
2022-12-27T02:58:53.317Z,96457.59
2022-12-27T03:01:43.755Z,96466.09
2022-12-27T03:04:33.025Z,96462.88
2022-12-27T03:07:14.786Z,96466.72
2022-12-27T03:10:04.502Z,96471.59
2022-12-27T03:12:59.414Z,96459.22
2022-12-27T03:15:53.242Z,96470.22
2022-12-27T03:18:30.245Z,96471.22
2022-12-27T03:21:16.490Z,96474.66
2022-12-27T03:24:03.086Z,96483.91
2022-12-27T03:26:33.299Z,96488.97
2022-12-27T03:29:19.129Z,96498.88
2022-12-27T03:32:07.048Z,96492.16
2022-12-27T03:34:40.108Z,96500.47
2022-12-27T03:37:28.145Z,96500.00
2022-12-27T03:40:06.996Z,96506.28
2022-12-27T03:42:54.862Z,96509.09
2022-12-27T03:45:43.554Z,96512.38
2022-12-27T03:48:12.293Z,96514.53
2022-12-27T03:50:45.248Z,96505.97
2022-12-27T03:53:16.063Z,96510.00
2022-12-27T03:55:44.650Z,96506.59
2022-12-27T03:58:13.440Z,96509.19
2022-12-27T04:00:42.027Z,96507.88
2022-12-27T04:03:10.997Z,96519.13
2022-12-27T04:05:39.915Z,96520.53
2022-12-27T04:08:27.253Z,96515.25
2022-12-27T04:11:12.983Z,96523.06
2022-12-27T04:13:58.942Z,96523.28
2022-12-27T04:16:45.105Z,96526.97
2022-12-27T04:19:31.380Z,96529.78
2022-12-27T04:22:17.092Z,96527.91
2022-12-27T04:25:04.531Z,96530.09
2022-12-27T04:27:50.540Z,96530.09
2022-12-27T04:30:37.001Z,96530.47
2022-12-27T04:33:22.716Z,96528.03
2022-12-27T04:35:51.389Z,96520.56
2022-12-27T04:38:20.054Z,96518.88
2022-12-27T04:41:07.869Z,96523.31
2022-12-27T04:43:54.119Z,96517.53
2022-12-27T04:46:41.504Z,96518.25
2022-12-27T04:49:29.977Z,96517.81
2022-12-27T04:52:15.676Z,96521.88
2022-12-27T04:54:59.957Z,96526.72
2022-12-27T04:57:30.311Z,96525.59
2022-12-27T05:00:12.694Z,96530.41
2022-12-27T05:02:41.585Z,96528.44
2022-12-27T05:05:11.068Z,96521.00
2022-12-27T05:07:57.117Z,96520.63
2022-12-27T05:10:42.903Z,96524.44
2022-12-27T05:13:31.431Z,96527.25
2022-12-27T05:16:00.147Z,96528.25
2022-12-27T05:18:28.891Z,96527.25
2022-12-27T05:20:57.492Z,96540.59
2022-12-27T05:23:43.672Z,96545.25
2022-12-27T05:26:12.329Z,96544.84
2022-12-27T05:28:42.733Z,96551.88
2022-12-27T05:31:11.509Z,96553.84
2022-12-27T05:33:40.148Z,96555.50
2022-12-27T05:36:10.203Z,96559.41
2022-12-27T05:38:39.235Z,96546.16
2022-12-27T05:41:08.131Z,96551.03
2022-12-27T05:43:36.916Z,96552.50
2022-12-27T05:46:07.608Z,96564.66
2022-12-27T05:48:36.332Z,96555.13
2022-12-27T05:51:08.897Z,96555.94
2022-12-27T05:53:37.695Z,96565.25
2022-12-27T05:56:06.620Z,96576.41
2022-12-27T05:58:35.596Z,96578.69
2022-12-27T06:01:10.481Z,96576.00
2022-12-27T06:03:39.357Z,96588.75
2022-12-27T06:06:08.736Z,96581.44
2022-12-27T06:08:37.729Z,96580.88
2022-12-27T06:11:08.456Z,96583.44
2022-12-27T06:13:37.257Z,96589.50
2022-12-27T06:16:06.747Z,96592.13
2022-12-27T06:18:38.339Z,96591.78
2022-12-27T06:21:08.125Z,96592.13
2022-12-27T06:23:37.607Z,96606.56
2022-12-27T06:26:06.879Z,96610.38
2022-12-27T06:28:35.475Z,96602.19
2022-12-27T06:31:04.163Z,96616.44
2022-12-27T06:33:32.888Z,96606.56
2022-12-27T06:36:07.223Z,96600.03
2022-12-27T06:38:35.829Z,96600.84
2022-12-27T06:41:04.640Z,96598.22
2022-12-27T06:43:33.268Z,96595.41
2022-12-27T06:46:03.210Z,96591.94
2022-12-27T06:48:32.262Z,96607.56
2022-12-27T06:51:02.849Z,96610.91
2022-12-27T06:53:31.503Z,96615.81
2022-12-27T06:56:00.281Z,96621.69
2022-12-27T06:58:28.946Z,96619.72
2022-12-27T07:00:57.625Z,96623.50
2022-12-27T07:03:26.338Z,96625.31
2022-12-27T07:05:55.286Z,96633.03
2022-12-27T07:08:25.406Z,96640.19
2022-12-27T07:10:54.049Z,96636.44
2022-12-27T07:13:22.709Z,96642.19
2022-12-27T07:15:51.595Z,96650.06
2022-12-27T07:18:20.245Z,96661.41
2022-12-27T07:20:48.963Z,96651.94
2022-12-27T07:23:19.515Z,96657.22
2022-12-27T07:25:49.985Z,96658.66
2022-12-27T07:28:18.642Z,96659.50
2022-12-27T07:30:47.358Z,96660.72
2022-12-27T07:33:16.080Z,96658.56
2022-12-27T07:35:45.321Z,96651.72
2022-12-27T07:38:14.019Z,96647.28
2022-12-27T07:40:43.268Z,96659.63
2022-12-27T07:43:13.654Z,96664.81
2022-12-27T07:45:42.453Z,96665.88
2022-12-27T07:48:11.228Z,96673.19
2022-12-27T07:50:39.844Z,96674.22
2022-12-27T07:53:08.551Z,96675.28
2022-12-27T07:55:37.184Z,96677.09
2022-12-27T07:58:06.100Z,96682.00
2022-12-27T08:00:36.200Z,96681.19
2022-12-27T08:03:05.018Z,96678.16
2022-12-27T08:05:33.701Z,96688.31
2022-12-27T08:08:02.756Z,96688.78
2022-12-27T08:10:34.142Z,96693.66
2022-12-27T08:13:02.777Z,96688.22
2022-12-27T08:15:31.476Z,96693.28
2022-12-27T08:18:01.660Z,96693.47
2022-12-27T08:20:31.008Z,96695.56
2022-12-27T08:22:59.929Z,96706.75
2022-12-27T08:25:28.932Z,96709.78
2022-12-27T08:28:04.567Z,96711.88
2022-12-27T08:30:33.560Z,96720.78
2022-12-27T08:33:04.374Z,96711.88
2022-12-27T08:35:52.083Z,96712.69
2022-12-27T08:38:22.010Z,96710.69
2022-12-27T08:40:50.701Z,96718.84
2022-12-27T08:43:19.354Z,96717.25
2022-12-27T08:45:48.633Z,96718.28
2022-12-27T08:48:18.753Z,96716.09
2022-12-27T08:50:47.451Z,96724.81
2022-12-27T08:53:16.064Z,96725.25
2022-12-27T08:55:44.731Z,96719.81
2022-12-27T08:58:16.355Z,96721.63
2022-12-27T09:00:45.589Z,96722.22
2022-12-27T09:03:14.596Z,96717.78
2022-12-27T09:05:44.709Z,96729.13
2022-12-27T09:08:13.501Z,96724.84
2022-12-27T09:10:42.120Z,96721.63
2022-12-27T09:13:10.774Z,96727.94
2022-12-27T09:15:39.913Z,96725.59
2022-12-27T09:18:08.940Z,96726.81
2022-12-27T09:20:38.397Z,96734.53
2022-12-27T09:23:08.538Z,96737.41
2022-12-27T09:25:37.216Z,96746.78
2022-12-27T09:28:07.148Z,96747.59
2022-12-27T09:30:35.828Z,96747.41
2022-12-27T09:33:04.456Z,96749.47
2022-12-27T09:35:38.417Z,96749.91
2022-12-27T09:38:09.371Z,96756.63
2022-12-27T09:40:38.633Z,96754.22
2022-12-27T09:43:19.497Z,96754.22
2022-12-27T09:45:50.147Z,96755.69
2022-12-27T09:48:26.188Z,96748.13
2022-12-27T09:50:59.645Z,96741.44
2022-12-27T09:53:33.326Z,96731.50
2022-12-27T09:56:02.315Z,96736.22
2022-12-27T09:58:40.774Z,96725.56
2022-12-27T10:01:25.736Z,96718.41
2022-12-27T10:03:54.535Z,96705.53
2022-12-27T10:06:36.723Z,96715.28
2022-12-27T10:09:13.584Z,96712.28
2022-12-27T10:11:45.162Z,96714.75
2022-12-27T10:14:20.563Z,96706.28
2022-12-27T10:16:52.017Z,96706.91
2022-12-27T10:19:26.673Z,96713.03
2022-12-27T10:22:05.577Z,96709.44
2022-12-27T10:24:39.782Z,96716.75
2022-12-27T10:27:14.801Z,96711.91
2022-12-27T10:29:44.019Z,96708.03
2022-12-27T10:32:14.331Z,96711.09
2022-12-27T10:34:43.462Z,96710.50
2022-12-27T10:37:15.838Z,96718.25
2022-12-27T10:39:46.911Z,96715.25
2022-12-27T10:42:32.242Z,96728.41
2022-12-27T10:45:32.742Z,96722.94
2022-12-27T10:48:15.123Z,96727.97
2022-12-27T10:50:50.601Z,96737.94
2022-12-27T10:53:37.015Z,96724.31
2022-12-27T10:56:12.529Z,96729.22
2022-12-27T10:58:42.597Z,96728.22
2022-12-27T11:01:19.874Z,96725.13
2022-12-27T11:03:48.650Z,96728.59
2022-12-27T11:06:28.255Z,96731.22
2022-12-27T11:08:56.941Z,96731.66
2022-12-27T11:11:28.335Z,96739.78
2022-12-27T11:14:00.052Z,96741.81
2022-12-27T11:16:30.405Z,96739.78
2022-12-27T11:19:00.268Z,96734.69
2022-12-27T11:21:30.019Z,96746.09
2022-12-27T11:23:59.622Z,96743.63
2022-12-27T11:26:31.261Z,96737.13
2022-12-27T11:29:02.059Z,96749.28
2022-12-27T11:31:37.702Z,96737.50
2022-12-27T11:34:13.057Z,96734.44
2022-12-27T11:36:43.262Z,96731.78
2022-12-27T11:39:33.586Z,96742.72
2022-12-27T11:42:03.915Z,96736.03
2022-12-27T11:44:34.367Z,96746.78
2022-12-27T11:47:05.661Z,96744.72
2022-12-27T11:49:39.400Z,96731.75
2022-12-27T11:52:24.804Z,96733.41
2022-12-27T11:55:40.631Z,96729.34
2022-12-27T11:58:31.060Z,96734.44
2022-12-27T12:01:05.252Z,96728.78
2022-12-27T12:03:47.773Z,96729.00
2022-12-27T12:06:18.300Z,96739.97
2022-12-27T12:09:07.193Z,96734.31
2022-12-27T12:11:54.623Z,96736.13
2022-12-27T12:14:53.487Z,96729.22
2022-12-27T12:17:39.305Z,96736.13
2022-12-27T12:20:34.962Z,96737.59
2022-12-27T12:23:10.017Z,96733.13
2022-12-27T12:26:13.359Z,96732.50
2022-12-27T12:29:08.902Z,96731.31
2022-12-27T12:31:55.596Z,96728.25
2022-12-27T12:34:43.897Z,96731.53
2022-12-27T12:37:21.167Z,96727.88
2022-12-27T12:40:01.296Z,96728.69
2022-12-27T12:42:32.175Z,96724.19
2022-12-27T12:45:36.713Z,96736.22
2022-12-27T12:48:21.265Z,96730.91
2022-12-27T12:51:08.733Z,96710.38
2022-12-27T12:53:51.817Z,96718.69
2022-12-27T12:56:43.548Z,96719.28
2022-12-27T12:59:19.986Z,96721.91
2022-12-27T13:01:55.073Z,96739.41
2022-12-27T13:04:35.619Z,96735.13
2022-12-27T13:07:37.768Z,96731.41
2022-12-27T13:10:44.507Z,96740.34
2022-12-27T13:13:16.295Z,96734.63
2022-12-27T13:15:58.274Z,96743.16
2022-12-27T13:18:31.052Z,96745.16
2022-12-27T13:21:10.651Z,96746.16
2022-12-27T13:23:47.875Z,96736.84
2022-12-27T13:26:22.453Z,96752.69
2022-12-27T13:29:08.582Z,96734.81
2022-12-27T13:31:48.886Z,96732.59
2022-12-27T13:34:26.151Z,96728.97
2022-12-27T13:37:08.867Z,96726.38
2022-12-27T13:39:44.536Z,96725.75
2022-12-27T13:42:37.309Z,96726.81
2022-12-27T13:45:11.261Z,96730.88
2022-12-27T13:47:59.649Z,96727.00
2022-12-27T13:50:45.118Z,96724.75
2022-12-27T13:53:39.325Z,96732.88
2022-12-27T13:56:43.555Z,96725.56
2022-12-27T13:59:11.061Z,96723.94
2022-12-27T14:02:02.580Z,96727.97
2022-12-27T14:04:44.460Z,96730.41
2022-12-27T14:07:27.745Z,96727.56
2022-12-27T14:10:16.515Z,96729.81
2022-12-27T14:13:00.759Z,96742.63
2022-12-27T14:15:40.455Z,96738.78
2022-12-27T14:18:26.601Z,96732.28
2022-12-27T14:21:02.566Z,96734.31
2022-12-27T14:23:57.418Z,96725.94
2022-12-27T14:27:14.411Z,96722.66
2022-12-27T14:30:18.252Z,96724.28
2022-12-27T14:33:31.838Z,96722.84
2022-12-27T14:36:36.107Z,96729.50
2022-12-27T14:39:37.279Z,96728.84
2022-12-27T14:42:33.805Z,96738.16
2022-12-27T14:45:29.230Z,96740.38
2022-12-27T14:48:33.629Z,96748.88
2022-12-27T14:55:04.518Z,96760.16
2022-12-27T14:57:37.811Z,96758.94
2022-12-27T15:03:41.091Z,96745.44
2022-12-27T15:06:12.365Z,96742.34
2022-12-27T15:08:48.371Z,96749.41
2022-12-27T15:11:58.315Z,96752.66
2022-12-27T15:14:39.223Z,96752.75
2022-12-27T15:17:13.868Z,96763.09
2022-12-27T15:20:03.728Z,96764.63
2022-12-27T15:22:37.705Z,96778.41
2022-12-27T15:25:08.678Z,96763.13
2022-12-27T15:27:41.115Z,96761.72
2022-12-27T15:30:21.061Z,96767.59
2022-12-27T15:32:58.398Z,96777.78
2022-12-27T15:35:42.560Z,96765.59
2022-12-27T15:38:13.175Z,96767.50
2022-12-27T15:40:54.040Z,96770.13
2022-12-27T15:43:56.658Z,96766.91
2022-12-27T15:46:50.784Z,96768.00
2022-12-27T15:49:30.144Z,96761.31
2022-12-27T15:52:00.589Z,96760.56
2022-12-27T15:54:53.346Z,96750.41
2022-12-27T15:57:32.672Z,96748.59
2022-12-27T16:00:13.167Z,96746.41
2022-12-27T16:02:53.650Z,96747.03
2022-12-27T16:05:46.713Z,96746.63
2022-12-27T16:08:35.574Z,96748.25
2022-12-27T16:11:06.340Z,96753.78
2022-12-27T16:13:42.782Z,96750.94
2022-12-27T16:16:57.309Z,96757.03
2022-12-27T16:20:08.174Z,96764.53
2022-12-27T16:22:40.163Z,96751.72
2022-12-27T16:25:31.927Z,96757.59
2022-12-27T16:28:03.217Z,96754.50
2022-12-27T16:30:41.145Z,96742.69
2022-12-27T16:33:33.931Z,96744.09
2022-12-27T16:36:20.196Z,96758.03
2022-12-27T16:39:03.275Z,96768.34
2022-12-27T16:41:43.678Z,96755.94
2022-12-27T16:44:17.479Z,96765.09
2022-12-27T16:46:56.050Z,96760.19
2022-12-27T16:49:48.402Z,96761.59
2022-12-27T16:52:45.404Z,96768.31
2022-12-27T16:55:26.230Z,96762.63
2022-12-27T16:57:57.466Z,96757.81
2022-12-27T17:00:41.695Z,96754.78
2022-12-27T17:03:29.961Z,96753.16
2022-12-27T17:06:30.741Z,96752.75
2022-12-27T17:08:47.960Z,96755.63
2022-12-27T17:11:27.935Z,96756.41
2022-12-27T17:13:58.180Z,96747.88
2022-12-27T17:16:28.802Z,96749.72
2022-12-27T17:18:58.719Z,96755.16
2022-12-27T17:21:30.741Z,96761.22
2022-12-27T17:24:01.814Z,96755.31
2022-12-27T17:26:48.354Z,96760.59
2022-12-27T17:29:37.640Z,96762.97
2022-12-27T17:32:10.324Z,96751.78
2022-12-27T17:34:44.192Z,96751.41
2022-12-27T17:37:16.970Z,96744.56
2022-12-27T17:39:56.506Z,96743.34
2022-12-27T17:42:47.759Z,96751.53
2022-12-27T17:45:21.950Z,96751.13
2022-12-27T17:48:11.328Z,96746.28
2022-12-27T17:50:41.653Z,96740.66
2022-12-27T17:53:35.871Z,96755.69
2022-12-27T17:56:37.191Z,96742.94
2022-12-27T17:59:09.622Z,96741.13
2022-12-27T18:01:40.661Z,96746.41
2022-12-27T18:04:09.657Z,96743.75
2022-12-27T18:06:39.994Z,96741.53
2022-12-27T18:09:08.818Z,96745.19
2022-12-27T18:11:37.495Z,96742.94
2022-12-27T18:14:07.934Z,96743.38
2022-12-27T18:16:40.132Z,96746.00
2022-12-27T18:19:08.993Z,96738.91
2022-12-27T18:21:37.745Z,96735.66
2022-12-27T18:24:09.730Z,96741.94
2022-12-27T18:26:39.143Z,96736.06
2022-12-27T18:29:11.778Z,96736.88
2022-12-27T18:31:43.565Z,96736.25
2022-12-27T18:34:15.868Z,96733.03
2022-12-27T18:36:47.425Z,96722.84
2022-12-27T18:39:19.492Z,96721.84
2022-12-27T18:41:49.947Z,96724.66
2022-12-27T18:44:26.792Z,96727.31
2022-12-27T18:46:57.729Z,96731.94
2022-12-27T18:49:27.253Z,96725.63
2022-12-27T18:51:56.325Z,96723.19
2022-12-27T18:54:33.610Z,96733.91
2022-12-27T18:57:03.048Z,96729.03
2022-12-27T18:59:33.343Z,96720.28
2022-12-27T19:02:02.945Z,96719.47
2022-12-27T19:04:32.305Z,96715.22
2022-12-27T19:07:09.921Z,96715.41
2022-12-27T19:09:40.363Z,96715.59
2022-12-27T19:12:18.648Z,96713.19
2022-12-27T19:14:48.960Z,96717.66
2022-12-27T19:17:19.390Z,96712.00
2022-12-27T19:19:49.789Z,96700.63
2022-12-27T19:22:31.662Z,96689.91
2022-12-27T19:25:00.958Z,96693.72
2022-12-27T19:27:29.654Z,96688.69
2022-12-27T19:30:00.120Z,96690.53
2022-12-27T19:32:32.660Z,96677.97
2022-12-27T19:35:02.993Z,96682.81
2022-12-27T19:37:32.117Z,96676.13
2022-12-27T19:40:00.946Z,96679.53
2022-12-27T19:42:30.586Z,96676.47
2022-12-27T19:45:00.636Z,96674.44
2022-12-27T19:47:31.525Z,96677.91
2022-12-27T19:50:00.190Z,96679.56
2022-12-27T19:52:28.989Z,96672.88
2022-12-27T19:54:59.906Z,96674.88
2022-12-27T19:57:28.902Z,96672.88
2022-12-27T19:59:57.528Z,96678.38
2022-12-27T20:02:27.995Z,96672.91
2022-12-27T20:04:57.615Z,96671.91
2022-12-27T20:07:26.476Z,96676.13
2022-12-27T20:09:55.215Z,96675.31
2022-12-27T20:12:23.875Z,96675.31
2022-12-27T20:14:52.769Z,96672.09
2022-12-27T20:17:21.481Z,96673.72
2022-12-27T20:19:52.730Z,96670.06
2022-12-27T20:22:21.501Z,96666.81
2022-12-27T20:24:51.455Z,96663.16
2022-12-27T20:27:24.026Z,96657.06
2022-12-27T20:29:53.435Z,96650.34
2022-12-27T20:32:22.132Z,96651.34
2022-12-27T20:34:52.350Z,96650.75
2022-12-27T20:37:24.554Z,96649.13
2022-12-27T20:39:53.805Z,96648.72
2022-12-27T20:42:23.943Z,96651.34
2022-12-27T20:44:52.981Z,96645.47
2022-12-27T20:47:21.710Z,96650.13
2022-12-27T20:49:51.974Z,96650.13
2022-12-27T20:52:24.288Z,96648.69
2022-12-27T20:54:56.142Z,96660.25
2022-12-27T20:57:25.188Z,96646.69
2022-12-27T20:59:54.157Z,96654.97
2022-12-27T21:02:23.001Z,96655.78
2022-12-27T21:04:53.230Z,96648.47
2022-12-27T21:07:21.943Z,96659.41
2022-12-27T21:09:51.391Z,96649.84
2022-12-27T21:12:20.036Z,96657.13
2022-12-27T21:14:50.174Z,96647.19
2022-12-27T21:17:19.017Z,96643.91
2022-12-27T21:19:47.655Z,96629.53
2022-12-27T21:22:18.069Z,96642.91
2022-12-27T21:24:47.006Z,96641.94
2022-12-27T21:27:15.689Z,96646.59
2022-12-27T21:29:44.340Z,96646.78
2022-12-27T21:32:13.021Z,96659.03
2022-12-27T21:34:42.101Z,96650.31
2022-12-27T21:37:13.511Z,96651.56
2022-12-27T21:39:43.974Z,96644.66
2022-12-27T21:42:12.716Z,96641.44
2022-12-27T21:44:41.309Z,96641.84
2022-12-27T21:47:09.911Z,96637.94
2022-12-27T21:49:40.614Z,96642.22
2022-12-27T21:52:09.235Z,96639.97
2022-12-27T21:54:37.980Z,96643.78
2022-12-27T21:57:08.097Z,96639.94
2022-12-27T21:59:36.719Z,96639.50
2022-12-27T22:02:05.514Z,96644.13
2022-12-27T22:04:34.269Z,96644.53
2022-12-27T22:07:03.228Z,96648.22
2022-12-27T22:09:31.862Z,96642.94
2022-12-27T22:12:00.552Z,96649.22
2022-12-27T22:14:36.643Z,96633.00
2022-12-27T22:17:06.348Z,96638.03
2022-12-27T22:19:34.972Z,96636.84
2022-12-27T22:22:03.742Z,96640.13
2022-12-27T22:24:32.418Z,96634.66
2022-12-27T22:27:01.060Z,96631.63
2022-12-27T22:29:35.157Z,96635.50
2022-12-27T22:32:04.865Z,96624.56
2022-12-27T22:34:33.553Z,96619.50
2022-12-27T22:37:02.198Z,96620.56
2022-12-27T22:39:31.138Z,96621.16
2022-12-27T22:41:59.799Z,96615.69
2022-12-27T22:44:30.695Z,96625.50
2022-12-27T22:47:25.717Z,96622.25
2022-12-27T22:49:48.737Z,96611.13
2022-12-27T22:52:17.396Z,96606.03
2022-12-27T22:55:05.928Z,96602.22
2022-12-27T22:57:35.643Z,96596.31
2022-12-27T23:00:09.634Z,96584.94
2022-12-27T23:02:38.411Z,96578.44
2022-12-27T23:05:08.037Z,96569.88
2022-12-27T23:08:05.261Z,96567.63
2022-12-27T23:10:25.625Z,96570.47
2022-12-27T23:12:54.292Z,96566.00
2022-12-27T23:15:24.698Z,96558.47
2022-12-27T23:17:53.920Z,96558.44
2022-12-27T23:20:22.612Z,96552.75
2022-12-27T23:22:51.277Z,96546.66
2022-12-27T23:25:19.853Z,96540.97
2022-12-27T23:27:48.553Z,96541.19
2022-12-27T23:30:17.601Z,96550.09
2022-12-27T23:32:47.765Z,96542.19
2022-12-27T23:35:16.631Z,96549.69
2022-12-27T23:37:45.273Z,96540.91
2022-12-27T23:40:14.323Z,96545.34
2022-12-27T23:42:42.978Z,96541.91
2022-12-27T23:45:11.992Z,96540.28
2022-12-27T23:47:40.584Z,96535.59
2022-12-27T23:50:14.526Z,96523.84
2022-12-27T23:52:47.771Z,96523.44
2022-12-27T23:55:16.990Z,96526.91
2022-12-27T23:57:45.628Z,96528.53
